sensor_id;sensor_type;location;lat;lon;timestamp;temperature;humidity
50690;DHT22;71367;48.298;11.238;2023-10-13T00:15:01;16.00;87.20
50690;DHT22;71367;48.298;11.238;2023-10-13T00:30:15;15.70;88.60
50690;DHT22;71367;48.298;11.238;2023-10-13T00:45:24;15.40;90.10
50690;DHT22;71367;48.298;11.238;2023-10-13T01:00:31;15.00;91.00
50690;DHT22;71367;48.298;11.238;2023-10-13T01:15:48;14.70;91.60
50690;DHT22;71367;48.298;11.238;2023-10-13T01:30:53;14.40;92.60
50690;DHT22;71367;48.298;11.238;2023-10-13T01:45:56;14.30;93.20
50690;DHT22;71367;48.298;11.238;2023-10-13T02:01:00;14.20;94.10
50690;DHT22;71367;48.298;11.238;2023-10-13T02:16:04;14.20;94.70
50690;DHT22;71367;48.298;11.238;2023-10-13T02:31:08;13.90;95.50
50690;DHT22;71367;48.298;11.238;2023-10-13T02:46:13;13.70;96.10
50690;DHT22;71367;48.298;11.238;2023-10-13T03:01:19;13.30;96.40
50690;DHT22;71367;48.298;11.238;2023-10-13T03:16:24;13.10;96.20
50690;DHT22;71367;48.298;11.238;2023-10-13T03:31:31;12.70;96.30
50690;DHT22;71367;48.298;11.238;2023-10-13T03:46:39;12.40;97.00
50690;DHT22;71367;48.298;11.238;2023-10-13T04:01:44;12.00;97.60
50690;DHT22;71367;48.298;11.238;2023-10-13T04:16:49;11.60;98.30
50690;DHT22;71367;48.298;11.238;2023-10-13T04:31:57;11.20;99.20
50690;DHT22;71367;48.298;11.238;2023-10-13T04:47:02;11.00;99.90
50690;DHT22;71367;48.298;11.238;2023-10-13T05:02:42;10.90;99.90
50690;DHT22;71367;48.298;11.238;2023-10-13T05:18:18;10.70;99.90
50690;DHT22;71367;48.298;11.238;2023-10-13T05:33:39;10.60;99.90
50690;DHT22;71367;48.298;11.238;2023-10-13T05:49:02;10.50;99.90
50690;DHT22;71367;48.298;11.238;2023-10-13T06:04:20;10.40;99.90
50690;DHT22;71367;48.298;11.238;2023-10-13T06:19:37;10.40;99.90
50690;DHT22;71367;48.298;11.238;2023-10-13T06:34:59;10.60;99.90
50690;DHT22;71367;48.298;11.238;2023-10-13T06:50:08;11.20;99.90
50690;DHT22;71367;48.298;11.238;2023-10-13T07:05:17;12.10;99.90
50690;DHT22;71367;48.298;11.238;2023-10-13T07:20:21;13.50;99.90
50690;DHT22;71367;48.298;11.238;2023-10-13T07:35:35;15.00;99.90
50690;DHT22;71367;48.298;11.238;2023-10-13T07:50:40;16.50;98.60
50690;DHT22;71367;48.298;11.238;2023-10-13T08:05:44;17.80;95.80
50690;DHT22;71367;48.298;11.238;2023-10-13T08:21:01;19.10;92.70
50690;DHT22;71367;48.298;11.238;2023-10-13T08:36:07;20.30;89.20
50690;DHT22;71367;48.298;11.238;2023-10-13T08:51:33;21.20;79.30
50690;DHT22;71367;48.298;11.238;2023-10-13T09:06:48;22.30;72.80
50690;DHT22;71367;48.298;11.238;2023-10-13T09:22:03;23.40;64.40
50690;DHT22;71367;48.298;11.238;2023-10-13T09:37:08;24.10;59.80
50690;DHT22;71367;48.298;11.238;2023-10-13T09:52:18;24.90;54.20
50690;DHT22;71367;48.298;11.238;2023-10-13T10:07:28;25.50;52.10
50690;DHT22;71367;48.298;11.238;2023-10-13T10:22:32;25.90;51.10
50690;DHT22;71367;48.298;11.238;2023-10-13T10:37:38;26.70;51.60
50690;DHT22;71367;48.298;11.238;2023-10-13T10:52:49;27.50;47.70
50690;DHT22;71367;48.298;11.238;2023-10-13T11:07:52;27.90;46.80
50690;DHT22;71367;48.298;11.238;2023-10-13T11:22:56;27.90;44.40
50690;DHT22;71367;48.298;11.238;2023-10-13T11:37:59;29.40;44.60
50690;DHT22;71367;48.298;11.238;2023-10-13T11:53:05;29.60;40.50
50690;DHT22;71367;48.298;11.238;2023-10-13T12:08:09;28.60;39.70
50690;DHT22;71367;48.298;11.238;2023-10-13T12:23:24;29.00;39.40
50690;DHT22;71367;48.298;11.238;2023-10-13T12:38:34;29.60;38.60
50690;DHT22;71367;48.298;11.238;2023-10-13T12:54:13;29.50;38.40
50690;DHT22;71367;48.298;11.238;2023-10-13T13:09:17;30.60;36.90
50690;DHT22;71367;48.298;11.238;2023-10-13T13:24:27;29.90;36.60
50690;DHT22;71367;48.298;11.238;2023-10-13T13:39:32;30.30;36.70
50690;DHT22;71367;48.298;11.238;2023-10-13T13:54:35;30.40;36.10
50690;DHT22;71367;48.298;11.238;2023-10-13T14:09:43;30.10;36.60
50690;DHT22;71367;48.298;11.238;2023-10-13T14:24:46;30.30;36.60
50690;DHT22;71367;48.298;11.238;2023-10-13T14:39:54;29.70;37.40
50690;DHT22;71367;48.298;11.238;2023-10-13T14:54:59;29.70;36.80
50690;DHT22;71367;48.298;11.238;2023-10-13T15:10:02;29.40;37.90
50690;DHT22;71367;48.298;11.238;2023-10-13T15:25:07;29.50;38.00
50690;DHT22;71367;48.298;11.238;2023-10-13T15:40:22;28.50;39.80
50690;DHT22;71367;48.298;11.238;2023-10-13T15:55:34;27.90;41.40
50690;DHT22;71367;48.298;11.238;2023-10-13T16:10:39;27.10;43.60
50690;DHT22;71367;48.298;11.238;2023-10-13T16:25:42;25.70;49.00
50690;DHT22;71367;48.298;11.238;2023-10-13T16:40:51;24.10;52.30
50690;DHT22;71367;48.298;11.238;2023-10-13T16:55:58;22.60;55.10
50690;DHT22;71367;48.298;11.238;2023-10-13T17:11:08;21.20;57.60
50690;DHT22;71367;48.298;11.238;2023-10-13T17:26:13;20.10;59.90
50690;DHT22;71367;48.298;11.238;2023-10-13T17:41:17;19.20;62.40
50690;DHT22;71367;48.298;11.238;2023-10-13T17:56:23;18.20;65.20
50690;DHT22;71367;48.298;11.238;2023-10-13T18:11:29;17.50;67.50
50690;DHT22;71367;48.298;11.238;2023-10-13T18:26:35;16.90;68.30
50690;DHT22;71367;48.298;11.238;2023-10-13T18:41:38;16.50;72.30
50690;DHT22;71367;48.298;11.238;2023-10-13T18:56:42;15.90;72.70
50690;DHT22;71367;48.298;11.238;2023-10-13T19:11:46;15.80;72.30
50690;DHT22;71367;48.298;11.238;2023-10-13T19:26:50;16.00;71.30
50690;DHT22;71367;48.298;11.238;2023-10-13T19:41:55;16.20;69.80
50690;DHT22;71367;48.298;11.238;2023-10-13T19:56:58;16.50;68.50
50690;DHT22;71367;48.298;11.238;2023-10-13T20:12:06;16.60;68.00
50690;DHT22;71367;48.298;11.238;2023-10-13T20:27:09;16.20;68.30
50690;DHT22;71367;48.298;11.238;2023-10-13T20:42:13;15.50;71.70
50690;DHT22;71367;48.298;11.238;2023-10-13T20:57:17;15.20;71.40
50690;DHT22;71367;48.298;11.238;2023-10-13T21:12:23;15.20;70.70
50690;DHT22;71367;48.298;11.238;2023-10-13T21:27:27;15.20;70.70
50690;DHT22;71367;48.298;11.238;2023-10-13T21:42:33;15.10;70.90
50690;DHT22;71367;48.298;11.238;2023-10-13T21:57:38;15.70;68.10
50690;DHT22;71367;48.298;11.238;2023-10-13T22:12:41;15.80;67.70
50690;DHT22;71367;48.298;11.238;2023-10-13T22:27:46;15.80;67.60
50690;DHT22;71367;48.298;11.238;2023-10-13T22:42:50;15.80;68.00
50690;DHT22;71367;48.298;11.238;2023-10-13T22:57:55;15.70;69.30
50690;DHT22;71367;48.298;11.238;2023-10-13T23:12:58;15.40;71.70
50690;DHT22;71367;48.298;11.238;2023-10-13T23:28:05;15.10;73.30
50690;DHT22;71367;48.298;11.238;2023-10-13T23:43:08;14.80;75.40
50690;DHT22;71367;48.298;11.238;2023-10-13T23:58:21;14.60;76.40
